Windsor, MA (01270)

1:59 AM EDT on September 01, 2015 (GMT -0400)
Windsor Volunteer Fire Department | | Change Station
CLOSE
Current Station
Personal Weather Station
Location: Cheshire, MA
Elevation: 2012 ft
Nearby Weather Stations

Elev 2012 ft 42.51 °N, 73.05 °W | Updated 49 seconds ago

Clear
Clear
60.1 °F
Feels Like 60.1 °F
N
0.9
Wind Variable Wind from West
Gusts 1.0 mph

Today
High -- | Low -- °F
--% Chance of Precip.
Yesterday
High -- | Low -- °F
Precip. -- in
6:16 AM 7:26 PM
Waning Gibbous, 91% visible
Pressure 29.96 in
Visibility 9.0 miles
Clouds Clear
Dew Point 59 °F
Humidity 97%
Rainfall 0.00 in
Snow Depth Not available.
UV 0 out of 12
Pollen 9.70 out of 12
Air Quality Not available.
Flu Activity Not available.
METAR KPSF 010554Z AUTO 00000KT 9SM CLR 18/16 A3004 RMK AO2 SLP145 T01830161 10233 20178 51010
Pressure 29.96 in
Visibility 9.0 miles
Clouds Clear
Dew Point 59 °F
Humidity 97%
Rainfall 0.00 in
Snow Depth Not available.
UV 0 out of 12
Pollen 9.70 out of 12
Air Quality Not available.
Flu Activity Not available.
METAR KPSF 010554Z AUTO 00000KT 9SM CLR 18/16 A3004 RMK AO2 SLP145 T01830161 10233 20178 51010

10-Day Weather Forecast

×

Almanac

Astronomy

Sep. 01, 2015 Rise Set
Actual Time
Civil Twilight
Nautical Twilight
Astronomical Twilight
Moon
Length of Visible Light
Length of Day
Tomorrow will be .
, % of the Moon is Illuminated

Today's Extremes

State Highs State Lows

Community

WunderPhotos

Upload Photos

1,851,484 photos uploaded!

WunderBlogs® & News

Nearby

Air Quality

  Air Quality AQ Index Pollutant
Not available.

Snow Depth

Station Depth Elevation

Earthquake Activity

City Distance Mag. Time & Date
Minimum magnitude displayed is 2.5.

Coastal Water Temperatures

Place Temperature

Stations

Nearby Weather Stations

Station Location Temp. Windchill Dew Point Humidity Wind Precip. Elev Updated Type